sensor_id;sensor_type;location;lat;lon;timestamp;pressure;altitude;pressure_sealevel;temperature;humidity
37064;BME280;23211;53.912;9.138;2022-08-21T00:01:14;101627.66;;;22.84;44.67
37064;BME280;23211;53.912;9.138;2022-08-21T00:04:05;101626.34;;;22.81;44.77
37064;BME280;23211;53.912;9.138;2022-08-21T00:06:52;101617.34;;;22.81;44.53
37064;BME280;23211;53.912;9.138;2022-08-21T00:09:38;101614.09;;;22.79;44.88
37064;BME280;23211;53.912;9.138;2022-08-21T00:12:24;101619.56;;;22.79;44.78
37064;BME280;23211;53.912;9.138;2022-08-21T00:15:14;101619.88;;;22.77;44.96
37064;BME280;23211;53.912;9.138;2022-08-21T00:18:00;101614.72;;;22.76;44.79
37064;BME280;23211;53.912;9.138;2022-08-21T00:20:47;101620.19;;;22.76;44.74
37064;BME280;23211;53.912;9.138;2022-08-21T00:23:34;101607.97;;;22.73;44.93
37064;BME280;23211;53.912;9.138;2022-08-21T00:26:20;101608.28;;;22.72;44.94
37064;BME280;23211;53.912;9.138;2022-08-21T00:29:06;101610.19;;;22.71;45.00
37064;BME280;23211;53.912;9.138;2022-08-21T00:31:52;101605.88;;;22.70;44.80
37064;BME280;23211;53.912;9.138;2022-08-21T00:34:38;101616.78;;;22.70;44.76
37064;BME280;23211;53.912;9.138;2022-08-21T00:37:24;101613.56;;;22.68;44.71
37064;BME280;23211;53.912;9.138;2022-08-21T00:40:15;101604.88;;;22.66;44.74
37064;BME280;23211;53.912;9.138;2022-08-21T00:43:04;101612.25;;;22.66;44.63
37064;BME280;23211;53.912;9.138;2022-08-21T00:45:51;101606.31;;;22.64;44.67
37064;BME280;23211;53.912;9.138;2022-08-21T00:48:38;101608.56;;;22.62;44.53
37064;BME280;23211;53.912;9.138;2022-08-21T00:51:49;101602.22;;;22.52;45.02
37064;BME280;23211;53.912;9.138;2022-08-21T00:54:36;101603.84;;;22.54;44.70
37064;BME280;23211;53.912;9.138;2022-08-21T00:57:27;101608.00;;;22.51;44.79
37064;BME280;23211;53.912;9.138;2022-08-21T01:00:17;101611.84;;;22.50;45.04
37064;BME280;23211;53.912;9.138;2022-08-21T01:03:10;101611.69;;;22.46;44.91
37064;BME280;23211;53.912;9.138;2022-08-21T01:05:56;101610.44;;;22.30;44.47
37064;BME280;23211;53.912;9.138;2022-08-21T01:08:42;101607.16;;;22.42;44.75
37064;BME280;23211;53.912;9.138;2022-08-21T01:11:28;101605.03;;;22.39;44.61
37064;BME280;23211;53.912;9.138;2022-08-21T01:14:14;101611.94;;;22.36;44.68
37064;BME280;23211;53.912;9.138;2022-08-21T01:17:02;101612.56;;;22.33;44.68
37064;BME280;23211;53.912;9.138;2022-08-21T01:19:48;101610.44;;;22.30;44.87
37064;BME280;23211;53.912;9.138;2022-08-21T01:22:34;101605.63;;;22.27;44.85
37064;BME280;23211;53.912;9.138;2022-08-21T01:25:21;101609.78;;;22.25;45.00
37064;BME280;23211;53.912;9.138;2022-08-21T01:28:12;101612.63;;;22.19;44.96
37064;BME280;23211;53.912;9.138;2022-08-21T01:31:01;101614.88;;;22.17;44.99
37064;BME280;23211;53.912;9.138;2022-08-21T01:33:47;101617.91;;;22.16;44.85
37064;BME280;23211;53.912;9.138;2022-08-21T01:36:33;101614.69;;;22.14;44.93
37064;BME280;23211;53.912;9.138;2022-08-21T01:39:19;101613.69;;;22.10;45.05
37064;BME280;23211;53.912;9.138;2022-08-21T01:42:05;101612.38;;;22.07;45.24
37064;BME280;23211;53.912;9.138;2022-08-21T01:44:51;101614.13;;;22.03;45.33
37064;BME280;23211;53.912;9.138;2022-08-21T01:47:38;101604.59;;;22.01;45.30
37064;BME280;23211;53.912;9.138;2022-08-21T01:50:24;101617.75;;;21.99;45.38
37064;BME280;23211;53.912;9.138;2022-08-21T01:53:10;101614.50;;;21.97;45.26
37064;BME280;23211;53.912;9.138;2022-08-21T01:55:56;101621.91;;;21.96;45.31
37064;BME280;23211;53.912;9.138;2022-08-21T01:58:45;101610.47;;;21.94;45.23
37064;BME280;23211;53.912;9.138;2022-08-21T02:01:31;101620.59;;;21.94;45.25
37064;BME280;23211;53.912;9.138;2022-08-21T02:04:17;101620.09;;;21.92;45.28
37064;BME280;23211;53.912;9.138;2022-08-21T02:07:03;101618.47;;;21.91;45.39
37064;BME280;23211;53.912;9.138;2022-08-21T02:09:49;101619.09;;;21.87;45.99
37064;BME280;23211;53.912;9.138;2022-08-21T02:12:35;101619.72;;;21.84;45.69
37064;BME280;23211;53.912;9.138;2022-08-21T02:15:21;101611.03;;;21.82;45.52
37064;BME280;23211;53.912;9.138;2022-08-21T02:18:07;101601.22;;;21.81;45.35
37064;BME280;23211;53.912;9.138;2022-08-21T02:20:53;101609.41;;;21.81;45.26
37064;BME280;23211;53.912;9.138;2022-08-21T02:23:38;101607.00;;;21.80;45.18
37064;BME280;23211;53.912;9.138;2022-08-21T02:26:24;101608.41;;;21.77;45.22
37064;BME280;23211;53.912;9.138;2022-08-21T02:29:11;101606.31;;;21.74;45.24
37064;BME280;23211;53.912;9.138;2022-08-21T02:31:57;101598.75;;;21.71;45.43
37064;BME280;23211;53.912;9.138;2022-08-21T02:34:44;101595.81;;;21.68;45.44
37064;BME280;23211;53.912;9.138;2022-08-21T02:37:29;101595.31;;;21.66;45.47
37064;BME280;23211;53.912;9.138;2022-08-21T02:40:20;101590.97;;;21.65;45.48
37064;BME280;23211;53.912;9.138;2022-08-21T02:43:07;101591.28;;;21.63;45.33
37064;BME280;23211;53.912;9.138;2022-08-21T02:45:55;101592.41;;;21.62;45.48
37064;BME280;23211;53.912;9.138;2022-08-21T02:48:41;101594.63;;;21.60;45.43
37064;BME280;23211;53.912;9.138;2022-08-21T02:51:27;101585.13;;;21.58;45.46
37064;BME280;23211;53.912;9.138;2022-08-21T02:54:13;101581.91;;;21.55;45.45
37064;BME280;23211;53.912;9.138;2022-08-21T02:56:59;101579.81;;;21.52;45.51
37064;BME280;23211;53.912;9.138;2022-08-21T02:59:45;101577.38;;;21.51;45.47
37064;BME280;23211;53.912;9.138;2022-08-21T03:02:32;101574.16;;;21.49;45.57
37064;BME280;23211;53.912;9.138;2022-08-21T03:05:18;101577.50;;;21.46;45.59
37064;BME280;23211;53.912;9.138;2022-08-21T03:08:06;101581.34;;;21.45;45.69
37064;BME280;23211;53.912;9.138;2022-08-21T03:10:55;101578.41;;;21.41;45.66
37064;BME280;23211;53.912;9.138;2022-08-21T03:13:41;101574.88;;;21.41;45.75
37064;BME280;23211;53.912;9.138;2022-08-21T03:16:28;101573.56;;;21.38;45.93
37064;BME280;23211;53.912;9.138;2022-08-21T03:19:13;101570.84;;;21.38;45.99
37064;BME280;23211;53.912;9.138;2022-08-21T03:21:59;101568.44;;;21.37;46.16
37064;BME280;23211;53.912;9.138;2022-08-21T03:24:45;101577.72;;;21.36;46.29
37064;BME280;23211;53.912;9.138;2022-08-21T03:27:31;101566.81;;;21.36;46.38
37064;BME280;23211;53.912;9.138;2022-08-21T03:30:18;101569.22;;;21.37;46.69
37064;BME280;23211;53.912;9.138;2022-08-21T03:33:05;101571.66;;;21.39;46.64
37064;BME280;23211;53.912;9.138;2022-08-21T03:36:02;101567.31;;;21.38;46.79
37064;BME280;23211;53.912;9.138;2022-08-21T03:38:49;101563.97;;;21.41;46.76
37064;BME280;23211;53.912;9.138;2022-08-21T03:41:34;101566.41;;;21.42;46.83
37064;BME280;23211;53.912;9.138;2022-08-21T03:44:20;101562.25;;;21.45;46.76
37064;BME280;23211;53.912;9.138;2022-08-21T03:47:06;101562.25;;;21.45;46.66
37064;BME280;23211;53.912;9.138;2022-08-21T03:49:52;101566.59;;;21.46;46.72
37064;BME280;23211;53.912;9.138;2022-08-21T03:52:38;101561.13;;;21.46;46.66
37064;BME280;23211;53.912;9.138;2022-08-21T03:55:25;101563.88;;;21.46;46.73
37064;BME280;23211;53.912;9.138;2022-08-21T03:58:11;101564.97;;;21.45;46.72
37064;BME280;23211;53.912;9.138;2022-08-21T04:00:58;101566.59;;;21.46;46.75
37064;BME280;23211;53.912;9.138;2022-08-21T04:03:47;101570.72;;;21.43;46.84
37064;BME280;23211;53.912;9.138;2022-08-21T04:06:33;101571.22;;;21.45;46.89
37064;BME280;23211;53.912;9.138;2022-08-21T04:09:19;101566.09;;;21.44;46.99
37064;BME280;23211;53.912;9.138;2022-08-21T04:12:05;101567.19;;;21.43;47.06
37064;BME280;23211;53.912;9.138;2022-08-21T04:14:51;101571.53;;;21.44;47.09
37064;BME280;23211;53.912;9.138;2022-08-21T04:17:37;101571.03;;;21.42;47.04
37064;BME280;23211;53.912;9.138;2022-08-21T04:20:23;101566.41;;;21.42;47.17
37064;BME280;23211;53.912;9.138;2022-08-21T04:23:09;101565.59;;;21.42;47.08
37064;BME280;23211;53.912;9.138;2022-08-21T04:25:55;101565.59;;;21.42;47.19
37064;BME280;23211;53.912;9.138;2022-08-21T04:28:41;101565.09;;;21.40;47.20
37064;BME280;23211;53.912;9.138;2022-08-21T04:31:27;101564.59;;;21.38;47.27
37064;BME280;23211;53.912;9.138;2022-08-21T04:34:14;101558.63;;;21.36;47.39
37064;BME280;23211;53.912;9.138;2022-08-21T04:36:59;101564.41;;;21.34;47.31
37064;BME280;23211;53.912;9.138;2022-08-21T04:39:45;101556.53;;;21.33;47.35
37064;BME280;23211;53.912;9.138;2022-08-21T04:42:31;101561.16;;;21.32;47.33
37064;BME280;23211;53.912;9.138;2022-08-21T04:45:27;101563.38;;;21.30;47.41
37064;BME280;23211;53.912;9.138;2022-08-21T04:48:15;101564.19;;;21.31;47.30
37064;BME280;23211;53.912;9.138;2022-08-21T04:51:27;101568.66;;;21.27;47.37
37064;BME280;23211;53.912;9.138;2022-08-21T04:54:20;101563.38;;;21.30;47.34
37064;BME280;23211;53.912;9.138;2022-08-21T04:57:08;101570.44;;;21.31;47.29
37064;BME280;23211;53.912;9.138;2022-08-21T04:59:56;101572.88;;;21.33;47.39
37064;BME280;23211;53.912;9.138;2022-08-21T05:02:42;101573.69;;;21.33;47.34
37064;BME280;23211;53.912;9.138;2022-08-21T05:05:28;101570.66;;;21.35;47.26
37064;BME280;23211;53.912;9.138;2022-08-21T05:08:19;101579.94;;;21.34;47.38
37064;BME280;23211;53.912;9.138;2022-08-21T05:11:06;101577.72;;;21.36;47.36
37064;BME280;23211;53.912;9.138;2022-08-21T05:13:52;101578.22;;;21.38;47.39
37064;BME280;23211;53.912;9.138;2022-08-21T05:16:38;101575.19;;;21.39;47.43
37064;BME280;23211;53.912;9.138;2022-08-21T05:19:24;101579.72;;;21.44;47.43
37064;BME280;23211;53.912;9.138;2022-08-21T05:22:11;101584.56;;;21.47;47.46
37064;BME280;23211;53.912;9.138;2022-08-21T05:24:57;101580.09;;;21.51;47.51
37064;BME280;23211;53.912;9.138;2022-08-21T05:27:43;101573.72;;;21.55;47.51
37064;BME280;23211;53.912;9.138;2022-08-21T05:30:28;101572.81;;;21.60;47.54
37064;BME280;23211;53.912;9.138;2022-08-21T05:33:14;101571.88;;;21.65;47.49
37064;BME280;23211;53.912;9.138;2022-08-21T05:36:00;101572.56;;;21.70;47.49
37064;BME280;23211;53.912;9.138;2022-08-21T05:38:46;101571.03;;;21.78;47.47
37064;BME280;23211;53.912;9.138;2022-08-21T05:41:32;101570.91;;;21.83;47.44
37064;BME280;23211;53.912;9.138;2022-08-21T05:44:17;101569.69;;;21.89;47.42
37064;BME280;23211;53.912;9.138;2022-08-21T05:47:05;101568.44;;;21.95;47.26
37064;BME280;23211;53.912;9.138;2022-08-21T05:49:52;101567.19;;;22.01;47.13
37064;BME280;23211;53.912;9.138;2022-08-21T05:52:37;101564.06;;;22.08;47.22
37064;BME280;23211;53.912;9.138;2022-08-21T05:55:23;101565.25;;;22.15;47.23
37064;BME280;23211;53.912;9.138;2022-08-21T05:58:09;101570.25;;;22.22;46.89
37064;BME280;23211;53.912;9.138;2022-08-21T06:00:56;101571.75;;;22.28;46.87
37064;BME280;23211;53.912;9.138;2022-08-21T06:03:42;101571.28;;;22.35;46.84
37064;BME280;23211;53.912;9.138;2022-08-21T06:06:28;101573.09;;;22.39;46.75
37064;BME280;23211;53.912;9.138;2022-08-21T06:09:13;101567.97;;;22.46;46.85
37064;BME280;23211;53.912;9.138;2022-08-21T06:12:04;101566.72;;;22.52;46.59
37064;BME280;23211;53.912;9.138;2022-08-21T06:14:50;101567.41;;;22.58;46.57
37064;BME280;23211;53.912;9.138;2022-08-21T06:17:37;101564.22;;;22.65;46.49
37064;BME280;23211;53.912;9.138;2022-08-21T06:20:23;101560.53;;;22.69;46.43
37064;BME280;23211;53.912;9.138;2022-08-21T06:23:09;101570.22;;;22.75;46.34
37064;BME280;23211;53.912;9.138;2022-08-21T06:25:54;101558.38;;;22.80;46.37
37064;BME280;23211;53.912;9.138;2022-08-21T06:28:41;101571.56;;;22.87;46.36
37064;BME280;23211;53.912;9.138;2022-08-21T06:31:27;101566.75;;;22.92;46.17
37064;BME280;23211;53.912;9.138;2022-08-21T06:34:14;101563.56;;;22.99;46.41
37064;BME280;23211;53.912;9.138;2022-08-21T06:37:00;101560.84;;;23.07;46.11
37064;BME280;23211;53.912;9.138;2022-08-21T06:39:46;101557.97;;;23.12;46.31
37064;BME280;23211;53.912;9.138;2022-08-21T06:42:32;101557.50;;;23.19;45.99
37064;BME280;23211;53.912;9.138;2022-08-21T06:45:18;101558.16;;;23.25;46.20
37064;BME280;23211;53.912;9.138;2022-08-21T06:48:05;101560.75;;;23.30;46.31
37064;BME280;23211;53.912;9.138;2022-08-21T06:50:52;101569.28;;;23.37;46.18
37064;BME280;23211;53.912;9.138;2022-08-21T06:53:38;101563.31;;;23.43;45.86
37064;BME280;23211;53.912;9.138;2022-08-21T06:56:23;101557.38;;;23.50;46.09
37064;BME280;23211;53.912;9.138;2022-08-21T06:59:09;101556.44;;;23.55;46.11
37064;BME280;23211;53.912;9.138;2022-08-21T07:01:55;101550.81;;;23.60;45.90
37064;BME280;23211;53.912;9.138;2022-08-21T07:04:41;101555.81;;;23.66;46.04
37064;BME280;23211;53.912;9.138;2022-08-21T07:07:26;101558.38;;;23.71;45.95
37064;BME280;23211;53.912;9.138;2022-08-21T07:10:14;101548.22;;;23.81;45.84
37064;BME280;23211;53.912;9.138;2022-08-21T07:13:00;101546.94;;;23.87;45.84
37064;BME280;23211;53.912;9.138;2022-08-21T07:15:46;101555.63;;;23.97;45.88
37064;BME280;23211;53.912;9.138;2022-08-21T07:18:32;101559.94;;;24.07;46.00
37064;BME280;23211;53.912;9.138;2022-08-21T07:21:18;101547.06;;;24.16;45.92
37064;BME280;23211;53.912;9.138;2022-08-21T07:24:04;101555.25;;;24.25;46.15
37064;BME280;23211;53.912;9.138;2022-08-21T07:26:50;101552.50;;;24.33;45.86
37064;BME280;23211;53.912;9.138;2022-08-21T07:29:36;101552.50;;;24.42;45.76
37064;BME280;23211;53.912;9.138;2022-08-21T07:32:21;101551.19;;;24.48;45.99
37064;BME280;23211;53.912;9.138;2022-08-21T07:35:07;101549.38;;;24.52;46.08
37064;BME280;23211;53.912;9.138;2022-08-21T07:37:53;101547.75;;;24.60;45.74
37064;BME280;23211;53.912;9.138;2022-08-21T07:40:39;101548.38;;;24.65;46.02
37064;BME280;23211;53.912;9.138;2022-08-21T07:43:25;101550.25;;;24.73;45.69
37064;BME280;23211;53.912;9.138;2022-08-21T07:46:12;101550.22;;;24.82;45.93
37064;BME280;23211;53.912;9.138;2022-08-21T07:48:58;101549.38;;;24.90;45.49
37064;BME280;23211;53.912;9.138;2022-08-21T07:51:44;101549.69;;;24.97;45.57
37064;BME280;23211;53.912;9.138;2022-08-21T07:54:30;101551.25;;;25.07;45.49
37064;BME280;23211;53.912;9.138;2022-08-21T07:57:16;101555.06;;;25.15;45.35
37064;BME280;23211;53.912;9.138;2022-08-21T08:00:05;101563.56;;;25.22;45.17
37064;BME280;23211;53.912;9.138;2022-08-21T08:02:57;101559.16;;;25.29;45.50
37064;BME280;23211;53.912;9.138;2022-08-21T08:05:44;101553.63;;;25.38;45.17
37064;BME280;23211;53.912;9.138;2022-08-21T08:08:30;101547.59;;;25.45;44.98
37064;BME280;23211;53.912;9.138;2022-08-21T08:11:16;101553.69;;;25.50;44.65
37064;BME280;23211;53.912;9.138;2022-08-21T08:14:02;101555.56;;;25.58;44.55
37064;BME280;23211;53.912;9.138;2022-08-21T08:16:49;101551.47;;;25.64;44.37
37064;BME280;23211;53.912;9.138;2022-08-21T08:19:35;101558.41;;;25.70;44.51
37064;BME280;23211;53.912;9.138;2022-08-21T08:22:22;101552.81;;;25.79;44.04
37064;BME280;23211;53.912;9.138;2022-08-21T08:25:13;101542.78;;;25.83;44.04
37064;BME280;23211;53.912;9.138;2022-08-21T08:28:00;101546.13;;;25.89;43.84
37064;BME280;23211;53.912;9.138;2022-08-21T08:30:46;101545.91;;;25.94;43.65
37064;BME280;23211;53.912;9.138;2022-08-21T08:33:32;101541.34;;;25.98;43.40
37064;BME280;23211;53.912;9.138;2022-08-21T08:36:17;101546.66;;;26.03;43.09
37064;BME280;23211;53.912;9.138;2022-08-21T08:39:05;101540.16;;;26.08;43.11
37064;BME280;23211;53.912;9.138;2022-08-21T08:41:58;101543.81;;;26.12;43.03
37064;BME280;23211;53.912;9.138;2022-08-21T08:44:46;101539.72;;;26.18;42.79
37064;BME280;23211;53.912;9.138;2022-08-21T08:47:34;101544.66;;;26.24;42.63
37064;BME280;23211;53.912;9.138;2022-08-21T08:50:45;101540.06;;;26.28;42.79
37064;BME280;23211;53.912;9.138;2022-08-21T08:53:41;101531.66;;;26.33;42.70
37064;BME280;23211;53.912;9.138;2022-08-21T08:56:31;101533.81;;;26.40;42.34
37064;BME280;23211;53.912;9.138;2022-08-21T08:59:22;101533.59;;;26.45;42.16
37064;BME280;23211;53.912;9.138;2022-08-21T09:02:12;101534.19;;;26.51;42.34
37064;BME280;23211;53.912;9.138;2022-08-21T09:04:59;101525.72;;;26.56;42.17
37064;BME280;23211;53.912;9.138;2022-08-21T09:11:03;101525.94;;;26.63;41.93
37064;BME280;23211;53.912;9.138;2022-08-21T09:26:25;101524.34;;;26.86;41.79
37064;BME280;23211;53.912;9.138;2022-08-21T09:29:12;101522.59;;;26.94;41.71
37064;BME280;23211;53.912;9.138;2022-08-21T09:31:58;101524.81;;;27.01;40.96
37064;BME280;23211;53.912;9.138;2022-08-21T09:35:05;101516.22;;;27.02;41.18
37064;BME280;23211;53.912;9.138;2022-08-21T09:37:59;101517.22;;;27.10;40.80
37064;BME280;23211;53.912;9.138;2022-08-21T09:40:56;101514.59;;;27.13;40.44
37064;BME280;23211;53.912;9.138;2022-08-21T09:43:52;101515.94;;;27.19;40.35
37064;BME280;23211;53.912;9.138;2022-08-21T09:46:50;101517.66;;;27.24;40.14
37064;BME280;23211;53.912;9.138;2022-08-21T09:49:38;101510.06;;;27.33;40.20
37064;BME280;23211;53.912;9.138;2022-08-21T09:52:25;101507.06;;;27.38;40.16
37064;BME280;23211;53.912;9.138;2022-08-21T09:55:18;101503.63;;;27.41;39.83
37064;BME280;23211;53.912;9.138;2022-08-21T09:58:34;101504.88;;;27.44;39.42
37064;BME280;23211;53.912;9.138;2022-08-21T10:01:23;101507.38;;;27.49;39.37
37064;BME280;23211;53.912;9.138;2022-08-21T10:04:10;101511.03;;;27.53;39.47
37064;BME280;23211;53.912;9.138;2022-08-21T10:07:07;101506.41;;;27.57;39.32
37064;BME280;23211;53.912;9.138;2022-08-21T10:10:08;101508.94;;;27.62;38.68
37064;BME280;23211;53.912;9.138;2022-08-21T10:13:21;101508.94;;;27.62;38.55
37064;BME280;23211;53.912;9.138;2022-08-21T10:19:39;101506.50;;;27.73;38.86
37064;BME280;23211;53.912;9.138;2022-08-21T10:22:35;101511.50;;;27.83;38.48
37064;BME280;23211;53.912;9.138;2022-08-21T10:32:01;101514.72;;;28.01;38.54
37064;BME280;23211;53.912;9.138;2022-08-21T10:41:39;101517.25;;;28.21;37.60
37064;BME280;23211;53.912;9.138;2022-08-21T10:44:48;101508.03;;;28.30;38.23
37064;BME280;23211;53.912;9.138;2022-08-21T10:47:40;101501.19;;;28.39;37.97
37064;BME280;23211;53.912;9.138;2022-08-21T10:50:45;101497.00;;;28.45;37.99
37064;BME280;23211;53.912;9.138;2022-08-21T10:56:29;101507.47;;;28.55;37.08
37064;BME280;23211;53.912;9.138;2022-08-21T10:59:34;101513.44;;;28.58;37.05
37064;BME280;23211;53.912;9.138;2022-08-21T11:02:35;101507.81;;;28.70;36.69
37064;BME280;23211;53.912;9.138;2022-08-21T11:08:22;101508.50;;;28.82;36.59
37064;BME280;23211;53.912;9.138;2022-08-21T11:14:11;101509.59;;;28.94;36.09
37064;BME280;23211;53.912;9.138;2022-08-21T11:17:11;101506.47;;;28.95;36.09
37064;BME280;23211;53.912;9.138;2022-08-21T11:20:10;101509.75;;;29.01;35.58
37064;BME280;23211;53.912;9.138;2022-08-21T11:23:03;101505.09;;;29.05;36.05
37064;BME280;23211;53.912;9.138;2022-08-21T11:26:00;101508.75;;;29.09;35.80
37064;BME280;23211;53.912;9.138;2022-08-21T11:29:44;101513.09;;;29.10;35.89
37064;BME280;23211;53.912;9.138;2022-08-21T11:32:29;101519.56;;;29.17;36.40
37064;BME280;23211;53.912;9.138;2022-08-21T11:38:25;101517.84;;;29.29;35.61
37064;BME280;23211;53.912;9.138;2022-08-21T11:41:26;101516.91;;;29.40;35.99
37064;BME280;23211;53.912;9.138;2022-08-21T11:50:30;101527.41;;;29.50;35.80
37064;BME280;23211;53.912;9.138;2022-08-21T11:53:31;101507.69;;;29.52;35.67
37064;BME280;23211;53.912;9.138;2022-08-21T11:56:24;101519.69;;;29.60;35.40
37064;BME280;23211;53.912;9.138;2022-08-21T11:59:25;101528.41;;;29.62;35.33
37064;BME280;23211;53.912;9.138;2022-08-21T12:02:16;101523.38;;;29.67;35.61
37064;BME280;23211;53.912;9.138;2022-08-21T12:05:07;101530.94;;;29.70;35.49
37064;BME280;23211;53.912;9.138;2022-08-21T12:08:05;101517.13;;;29.70;35.22
37064;BME280;23211;53.912;9.138;2022-08-21T12:11:05;101526.28;;;29.74;35.33
37064;BME280;23211;53.912;9.138;2022-08-21T12:14:13;101525.13;;;29.75;35.09
37064;BME280;23211;53.912;9.138;2022-08-21T12:17:04;101513.03;;;29.83;35.02
37064;BME280;23211;53.912;9.138;2022-08-21T12:20:16;101518.56;;;29.83;34.62
37064;BME280;23211;53.912;9.138;2022-08-21T12:26:02;101515.66;;;29.96;34.35
37064;BME280;23211;53.912;9.138;2022-08-21T12:28:48;101513.47;;;30.05;34.39
37064;BME280;23211;53.912;9.138;2022-08-21T12:31:48;101503.66;;;30.07;34.13
37064;BME280;23211;53.912;9.138;2022-08-21T12:34:37;101512.84;;;30.15;33.82
37064;BME280;23211;53.912;9.138;2022-08-21T12:37:48;101505.00;;;30.17;33.83
37064;BME280;23211;53.912;9.138;2022-08-21T12:40:46;101516.25;;;30.28;33.67
37064;BME280;23211;53.912;9.138;2022-08-21T12:43:43;101513.97;;;30.33;33.54
37064;BME280;23211;53.912;9.138;2022-08-21T12:46:35;101513.66;;;30.38;33.50
37064;BME280;23211;53.912;9.138;2022-08-21T12:49:45;101524.28;;;30.36;33.64
37064;BME280;23211;53.912;9.138;2022-08-21T12:52:40;101512.59;;;30.46;33.25
37064;BME280;23211;53.912;9.138;2022-08-21T12:55:29;101514.25;;;30.51;33.02
37064;BME280;23211;53.912;9.138;2022-08-21T12:58:24;101514.69;;;30.53;33.24
37064;BME280;23211;53.912;9.138;2022-08-21T13:01:21;101513.94;;;30.56;33.27
37064;BME280;23211;53.912;9.138;2022-08-21T13:04:16;101513.28;;;30.63;33.16
37064;BME280;23211;53.912;9.138;2022-08-21T13:07:07;101512.97;;;30.68;33.11
37064;BME280;23211;53.912;9.138;2022-08-21T13:10:05;101511.47;;;30.74;32.87
37064;BME280;23211;53.912;9.138;2022-08-21T13:12:58;101510.34;;;30.78;32.94
37064;BME280;23211;53.912;9.138;2022-08-21T13:15:45;101509.25;;;30.83;33.08
37064;BME280;23211;53.912;9.138;2022-08-21T13:18:33;101500.19;;;30.86;32.37
37064;BME280;23211;53.912;9.138;2022-08-21T13:21:20;101499.81;;;30.88;32.56
37064;BME280;23211;53.912;9.138;2022-08-21T13:26:56;101495.56;;;30.94;32.78
37064;BME280;23211;53.912;9.138;2022-08-21T13:29:42;101496.81;;;31.00;32.75
37064;BME280;23211;53.912;9.138;2022-08-21T13:32:30;101498.09;;;31.06;32.63
37064;BME280;23211;53.912;9.138;2022-08-21T13:35:25;101498.19;;;31.13;32.58
37064;BME280;23211;53.912;9.138;2022-08-21T13:38:11;101495.63;;;31.24;32.54
37064;BME280;23211;53.912;9.138;2022-08-21T13:41:01;101481.84;;;31.31;32.16
37064;BME280;23211;53.912;9.138;2022-08-21T13:43:57;101483.44;;;31.32;32.44
37064;BME280;23211;53.912;9.138;2022-08-21T13:46:45;101493.03;;;31.38;32.15
37064;BME280;23211;53.912;9.138;2022-08-21T13:49:34;101491.84;;;31.39;31.82
37064;BME280;23211;53.912;9.138;2022-08-21T13:52:24;101483.97;;;31.41;31.83
37064;BME280;23211;53.912;9.138;2022-08-21T13:55:13;101485.56;;;31.42;31.88
37064;BME280;23211;53.912;9.138;2022-08-21T13:58:03;101495.50;;;31.47;31.97
37064;BME280;23211;53.912;9.138;2022-08-21T14:00:50;101491.59;;;31.51;31.98
37064;BME280;23211;53.912;9.138;2022-08-21T14:03:41;101494.78;;;31.53;32.15
37064;BME280;23211;53.912;9.138;2022-08-21T14:06:33;101498.00;;;31.59;31.74
37064;BME280;23211;53.912;9.138;2022-08-21T14:12:17;101491.38;;;31.67;31.93
37064;BME280;23211;53.912;9.138;2022-08-21T14:15:05;101489.06;;;31.69;31.90
37064;BME280;23211;53.912;9.138;2022-08-21T14:17:52;101492.25;;;31.71;31.75
37064;BME280;23211;53.912;9.138;2022-08-21T14:20:37;101494.63;;;31.72;31.79
37064;BME280;23211;53.912;9.138;2022-08-21T14:23:27;101491.00;;;31.68;31.57
37064;BME280;23211;53.912;9.138;2022-08-21T14:26:17;101499.69;;;31.67;31.53
37064;BME280;23211;53.912;9.138;2022-08-21T14:29:07;101500.84;;;31.66;31.47
37064;BME280;23211;53.912;9.138;2022-08-21T14:31:58;101501.63;;;31.63;31.54
37064;BME280;23211;53.912;9.138;2022-08-21T14:34:44;101499.78;;;31.40;32.31
37064;BME280;23211;53.912;9.138;2022-08-21T14:37:30;101506.28;;;31.55;31.80
37064;BME280;23211;53.912;9.138;2022-08-21T14:40:18;101503.09;;;31.53;32.38
37064;BME280;23211;53.912;9.138;2022-08-21T14:43:04;101521.31;;;31.54;32.67
37064;BME280;23211;53.912;9.138;2022-08-21T14:45:50;101518.91;;;31.53;32.72
37064;BME280;23211;53.912;9.138;2022-08-21T14:48:36;101522.06;;;31.51;32.83
37064;BME280;23211;53.912;9.138;2022-08-21T14:51:22;101520.44;;;31.47;32.83
37064;BME280;23211;53.912;9.138;2022-08-21T14:54:07;101524.69;;;31.40;32.77
37064;BME280;23211;53.912;9.138;2022-08-21T14:56:53;101530.09;;;31.30;32.95
37064;BME280;23211;53.912;9.138;2022-08-21T14:59:40;101528.75;;;31.20;33.12
37064;BME280;23211;53.912;9.138;2022-08-21T15:02:26;101523.06;;;31.09;33.61
37064;BME280;23211;53.912;9.138;2022-08-21T15:05:12;101531.22;;;30.99;33.83
37064;BME280;23211;53.912;9.138;2022-08-21T15:07:58;101529.47;;;30.87;34.19
37064;BME280;23211;53.912;9.138;2022-08-21T15:10:44;101525.00;;;30.79;34.40
37064;BME280;23211;53.912;9.138;2022-08-21T15:13:30;101522.13;;;30.72;34.50
37064;BME280;23211;53.912;9.138;2022-08-21T15:16:16;101520.84;;;30.66;34.49
37064;BME280;23211;53.912;9.138;2022-08-21T15:19:02;101527.06;;;30.59;34.90
37064;BME280;23211;53.912;9.138;2022-08-21T15:21:48;101527.75;;;30.56;35.08
37064;BME280;23211;53.912;9.138;2022-08-21T15:24:34;101525.31;;;30.51;35.19
37064;BME280;23211;53.912;9.138;2022-08-21T15:27:20;101532.38;;;30.48;35.21
37064;BME280;23211;53.912;9.138;2022-08-21T15:30:06;101530.72;;;30.44;35.35
37064;BME280;23211;53.912;9.138;2022-08-21T15:32:52;101532.22;;;30.38;35.48
37064;BME280;23211;53.912;9.138;2022-08-21T15:35:38;101529.75;;;30.33;35.67
37064;BME280;23211;53.912;9.138;2022-08-21T15:38:25;101536.38;;;30.28;35.60
37064;BME280;23211;53.912;9.138;2022-08-21T15:41:12;101539.09;;;30.25;35.59
37064;BME280;23211;53.912;9.138;2022-08-21T15:43:59;101533.44;;;30.18;35.51